Mekoryuk, Alaska
Current Conditions -  °F | °C
As of 7:56 PM on Thursday 30 Oct 2014 (Local Time) from PAMY Reporting Station
Overcast Overcast  
Wind Chill: 11°   Ceiling: 1600
Heat Index: 25°   Visibility: 10mi
Dew Point: 14°   Wind: 20mph
Humidity: 64%   Direction: 90°E
Pressure: 29.61"   Gusts: 25mph
Location:  60.39°N, 166.19°W
Report Text: PAMY 310356Z AUTO 09017G22KT 10SM OVC016 M04/M10 A2961 RMK AO1
Loading
Personal Weather Stations






























Interactive Weather Map New forecast layout! Learn more

10-Day Weather Forecast

Advertisements
Track Severe Weather on mobile